• Join FlightAware (Why Join?)
  • Login
  • US Flag 
03:23AM EDT


 

Airport Tracker/Info


-or-


 

Live Flight TrackerFlight Track Log ✈ N8932U ✈ 08-Jul-2013 ✈ KCRG - KLAL

Flight Track Log - Related Links

Times and Time Zones

All times are in EDT time to prevent confusion due to time zone crossing. See the N8932U flight status page for this flight to view local times or setup timezone preferences in your user account.

Time Position Orientation Groundspeed Altitude Reporting Facility
EDT Latitude Longitude Course Direction KTS MPH feet Rate Location/Type
07:21AM 30.3319 -81.5086 153° Southeast 97 112 300  Level Jacksonville Center
07:22AM 30.3047 -81.4922 153° Southeast 106 122 1,800 1,260 Climbing Jacksonville Center
07:23AM 30.2775 -81.4733 149° Southeast 112 129 2,900 1,140 Climbing Jacksonville Center
07:24AM 30.2483 -81.4883 204° Southwest 122 140 4,100 1,140 Climbing Jacksonville Center
07:25AM 30.2150 -81.5008 198° South 126 145 5,200 1,020 Climbing Jacksonville Center
07:26AM 30.1819 -81.5181 204° Southwest 130 150 6,200 900 Climbing Jacksonville Center
07:27AM 30.1508 -81.5331 203° Southwest 130 150 7,100 480 Climbing Jacksonville Center
07:28AM 30.1111 -81.5528 203° Southwest 174 200 7,200  Climbing Jacksonville Center
07:29AM 30.0656 -81.5797 207° Southwest 184 212 7,100 -60 Descending Jacksonville Center
07:30AM 30.0200 -81.6092 209° Southwest 176 203 7,100  Level Jacksonville Center
07:31AM 29.9764 -81.6336 206° Southwest 180 207 7,100  Level Jacksonville Center
07:32AM 29.9306 -81.6558 203° Southwest 180 207 7,100  Level Jacksonville Center
07:33AM 29.8828 -81.6708 195° South 177 204 7,100  Level Jacksonville Center
07:34AM 29.8267 -81.6883 195° South 178 205 7,100 -60 Level Jacksonville Center
07:35AM 29.7786 -81.7081 200° South 177 204 7,000 -60 Descending Jacksonville Center
07:36AM 29.7308 -81.7206 193° South 179 206 7,000  Level Jacksonville Center
07:37AM 29.6850 -81.7356 196° South 176 203 7,000  Level Jacksonville Center
07:38AM 29.6372 -81.7506 195° South 174 200 7,000  Level Jacksonville Center
07:39AM 29.5872 -81.7653 194° South 173 199 7,000 60 Level Jacksonville Center
07:40AM 29.5414 -81.7803 196° South 175 201 7,200  Climbing Jacksonville Center
07:41AM 29.4956 -81.7925 193° South 173 199 7,000 -120 Descending Jacksonville Center
07:42AM 29.4497 -81.8097 198° South 174 200 7,000  Level Jacksonville Center
07:43AM 29.4019 -81.8247 195° South 174 200 7,100  Climbing Jacksonville Center
07:44AM 29.3561 -81.8419 198° South 172 198 7,000 -60 Descending Jacksonville Center
07:45AM 29.3083 -81.8567 195° South 173 199 7,000  Level Jacksonville Center
07:46AM 29.2561 -81.8714 194° South 175 201 7,000  Level Jacksonville Center
07:47AM 29.2125 -81.8886 199° South 175 201 7,000  Level Jacksonville Center
07:48AM 29.1647 -81.9058 197° South 173 199 7,100  Climbing Jacksonville Center
07:49AM 29.1189 -81.9206 196° South 173 199 7,100  Level Jacksonville Center
07:50AM 29.0731 -81.9375 198° South 175 201 7,100  Level Jacksonville Center
07:51AM 29.0250 -81.9544 197° South 175 201 7,100  Level Jacksonville Center
07:52AM 28.9792 -81.9692 196° South 174 200 7,100  Level Jacksonville Center
07:53AM 28.9314 -81.9864 198° South 174 200 7,100  Level Jacksonville Center
07:54AM 28.8856 -82.0058 200° South 174 200 7,100  Level Jacksonville Center
07:55AM 28.8397 -82.0228 198° South 174 200 7,100 -60 Level Jacksonville Center
07:57AM 28.7919 -82.0444 202° Southwest 173 199 7,000  Descending Jacksonville Center
07:58AM 28.7358 -82.0686 201° Southwest 173 199 7,100  Climbing Jacksonville Center
08:00AM 28.6500 -82.1000 198° South 174 200 7,100 -60 Level Tampa TRACON
08:01AM 28.6167 -82.1167 204° Southwest 173 199 7,000 -180 Descending Tampa TRACON
08:02AM 28.5667 -82.1167 180° South 176 203 6,800 -420 Descending Tampa TRACON
08:03AM 28.5167 -82.1167 180° South 182 209 6,200 -600 Descending Tampa TRACON
08:04AM 28.4667 -82.1167 180° South 186 214 5,700 -600 Descending Tampa TRACON
08:05AM 28.4000 -82.1167 180° South 184 212 5,100 -540 Descending Tampa TRACON
08:06AM 28.3500 -82.1167 180° South 180 207 4,700 -540 Descending Tampa TRACON
08:07AM 28.3000 -82.1167 180° South 179 206 4,000 -660 Descending Tampa TRACON
08:08AM 28.2500 -82.1000 164° South 176 203 3,300 -660 Descending Tampa TRACON
08:09AM 28.2000 -82.1000 180° South 172 198 2,700 -540 Descending Tampa TRACON
08:10AM 28.1500 -82.0833 164° South 165 190 2,300 -360 Descending Tampa TRACON
08:11AM 28.1167 -82.0833 180° South 154 177 2,100 -240 Descending Tampa TRACON
08:12AM 28.0833 -82.0667 156° South 150 173 1,900 -240 Descending Tampa TRACON
08:13AM 28.0333 -82.0500 164° South 152 175 1,600 -420 Descending Tampa TRACON
08:14AM 28.0000 -82.0500 180° South 111 128 1,000 -600 Descending Tampa TRACON